createdAt,value
2018-12-22T00:02:06.889Z,2.50
2018-12-22T00:04:33.552Z,5.57
2018-12-22T00:07:00.188Z,3.37
2018-12-22T00:09:26.875Z,3.43
2018-12-22T00:11:53.612Z,1.90
2018-12-22T00:14:20.210Z,4.60
2018-12-22T00:16:46.848Z,1.93
2018-12-22T00:19:13.576Z,1.87
2018-12-22T00:21:40.188Z,4.87
2018-12-22T00:24:06.830Z,7.23
2018-12-22T00:26:33.536Z,3.30
2018-12-22T00:29:00.181Z,6.63
2018-12-22T00:31:26.823Z,5.90
2018-12-22T00:33:53.454Z,6.03
2018-12-22T00:36:20.065Z,6.60
2018-12-22T00:38:46.700Z,10.37
2018-12-22T00:41:13.304Z,5.67
2018-12-22T00:43:39.925Z,6.33
2018-12-22T00:46:06.552Z,6.23
2018-12-22T00:48:33.203Z,7.77
2018-12-22T00:50:59.804Z,6.40
2018-12-22T00:53:26.474Z,10.07
2018-12-22T00:55:53.083Z,8.03
2018-12-22T00:58:19.749Z,9.60
2018-12-22T01:00:46.372Z,9.73
2018-12-22T01:03:12.980Z,6.87
2018-12-22T01:05:39.656Z,9.20
2018-12-22T01:08:06.307Z,5.47
2018-12-22T01:10:32.962Z,8.77
2018-12-22T01:12:59.592Z,8.83
2018-12-22T01:15:26.205Z,7.70
2018-12-22T01:17:52.855Z,7.00
2018-12-22T01:20:19.501Z,6.73
2018-12-22T01:22:46.141Z,5.60
2018-12-22T01:25:12.781Z,6.33
2018-12-22T01:27:39.414Z,7.90
2018-12-22T01:30:07.472Z,6.77
2018-12-22T01:32:34.099Z,7.50
2018-12-22T01:35:00.710Z,5.37
2018-12-22T01:37:27.401Z,4.80
2018-12-22T01:39:54.151Z,8.40
2018-12-22T01:42:20.748Z,4.97
2018-12-22T01:44:47.377Z,3.07
2018-12-22T01:47:14.004Z,7.70
2018-12-22T01:49:40.705Z,7.70
2018-12-22T01:52:07.340Z,8.00
2018-12-22T01:54:33.980Z,7.97
2018-12-22T01:57:00.624Z,5.50
2018-12-22T01:59:27.236Z,4.00
2018-12-22T02:01:53.844Z,8.80
2018-12-22T02:04:20.482Z,4.70
2018-12-22T02:06:47.089Z,7.13
2018-12-22T02:09:13.716Z,5.57
2018-12-22T02:11:40.452Z,4.97
2018-12-22T02:14:07.053Z,3.90
2018-12-22T02:16:33.719Z,6.90
2018-12-22T02:19:00.364Z,8.63
2018-12-22T02:21:27.014Z,9.17
2018-12-22T02:23:53.622Z,6.67
2018-12-22T02:26:20.290Z,6.13
2018-12-22T02:28:46.897Z,8.43
2018-12-22T02:31:13.561Z,8.37
2018-12-22T02:33:40.191Z,4.10
2018-12-22T02:36:06.848Z,7.30
2018-12-22T02:38:33.471Z,7.70
2018-12-22T02:41:00.076Z,5.03
2018-12-22T02:43:26.761Z,5.40
2018-12-22T02:45:53.809Z,5.97
2018-12-22T02:48:20.449Z,5.10
2018-12-22T02:50:47.084Z,6.13
2018-12-22T02:53:13.724Z,5.60
2018-12-22T02:55:40.336Z,5.43
2018-12-22T02:58:07.000Z,6.10
2018-12-22T03:00:33.745Z,6.00
2018-12-22T03:03:00.388Z,5.93
2018-12-22T03:05:27.128Z,2.50
2018-12-22T03:07:53.737Z,4.70
2018-12-22T03:10:20.416Z,4.97
2018-12-22T03:12:47.020Z,4.70
2018-12-22T03:15:13.657Z,7.93
2018-12-22T03:17:40.320Z,4.10
2018-12-22T03:20:07.054Z,2.40
2018-12-22T03:22:33.795Z,5.67
2018-12-22T03:25:00.433Z,5.07
2018-12-22T03:27:27.076Z,9.60
2018-12-22T03:29:53.705Z,5.80
2018-12-22T03:32:20.314Z,3.77
2018-12-22T03:34:46.988Z,6.37
2018-12-22T03:37:13.641Z,8.63
2018-12-22T03:39:40.290Z,6.30
2018-12-22T03:42:06.898Z,6.40
2018-12-22T03:44:34.441Z,6.37
2018-12-22T03:47:01.486Z,6.70
2018-12-22T03:49:28.165Z,5.77
2018-12-22T03:51:54.901Z,4.77
2018-12-22T03:54:21.541Z,7.73
2018-12-22T03:56:48.178Z,10.17
2018-12-22T03:59:14.827Z,7.00
2018-12-22T04:01:41.456Z,13.40
2018-12-22T04:04:08.070Z,4.80
2018-12-22T04:06:34.764Z,6.23
2018-12-22T04:09:01.891Z,8.60
2018-12-22T04:11:28.489Z,6.33
2018-12-22T04:13:55.169Z,4.27
2018-12-22T04:16:21.777Z,6.83
2018-12-22T04:18:48.445Z,8.80
2018-12-22T04:21:15.082Z,9.73
2018-12-22T04:23:41.688Z,8.60
2018-12-22T04:26:08.556Z,10.50
2018-12-22T04:28:35.204Z,5.67
2018-12-22T04:31:02.216Z,6.33
2018-12-22T04:33:28.925Z,8.13
2018-12-22T04:35:55.627Z,9.57
2018-12-22T04:38:22.236Z,9.20
2018-12-22T04:40:48.868Z,9.23
2018-12-22T04:43:15.476Z,8.13
2018-12-22T04:45:42.273Z,9.63
2018-12-22T04:48:09.133Z,10.63
2018-12-22T04:50:35.741Z,4.57
2018-12-22T04:53:02.373Z,6.07
2018-12-22T04:55:28.985Z,9.20
2018-12-22T04:57:55.620Z,9.40
2018-12-22T05:00:22.224Z,7.83
2018-12-22T05:02:49.278Z,5.33
2018-12-22T05:05:15.885Z,7.00
2018-12-22T05:07:42.488Z,4.70
2018-12-22T05:10:09.189Z,12.03
2018-12-22T05:12:35.808Z,6.53
2018-12-22T05:15:02.441Z,7.10
2018-12-22T05:17:29.054Z,8.40
2018-12-22T05:19:55.659Z,6.00
2018-12-22T05:22:22.285Z,9.13
2018-12-22T05:24:48.908Z,6.57
2018-12-22T05:27:15.659Z,4.90
2018-12-22T05:29:42.260Z,4.37
2018-12-22T05:32:08.892Z,4.20
2018-12-22T05:34:35.573Z,5.67
2018-12-22T05:37:02.185Z,4.83
2018-12-22T05:39:28.818Z,1.70
2018-12-22T05:41:55.428Z,4.40
2018-12-22T05:44:22.127Z,3.33
2018-12-22T05:46:48.760Z,3.00
2018-12-22T05:49:15.389Z,1.90
2018-12-22T05:51:42.057Z,3.03
2018-12-22T05:54:08.784Z,3.57
2018-12-22T05:56:35.430Z,3.40
2018-12-22T05:59:02.077Z,6.53
2018-12-22T06:01:28.804Z,2.33
2018-12-22T06:03:55.452Z,3.07
2018-12-22T06:06:22.049Z,1.90
2018-12-22T06:08:48.730Z,1.63
2018-12-22T06:11:15.360Z,2.43
2018-12-22T06:13:42.005Z,2.70
2018-12-22T06:16:08.613Z,2.33
2018-12-22T06:18:35.240Z,3.17
2018-12-22T06:21:02.128Z,4.00
2018-12-22T06:23:28.768Z,3.27
2018-12-22T06:25:55.384Z,2.50
2018-12-22T06:28:21.988Z,1.40
2018-12-22T06:30:48.689Z,1.47
2018-12-22T06:33:15.326Z,1.47
2018-12-22T06:35:41.948Z,2.90
2018-12-22T06:38:08.561Z,3.53
2018-12-22T06:40:35.192Z,1.80
2018-12-22T06:43:02.088Z,2.30
2018-12-22T06:45:28.816Z,4.50
2018-12-22T06:47:55.446Z,3.87
2018-12-22T06:50:22.069Z,1.70
2018-12-22T06:52:48.696Z,1.70
2018-12-22T06:55:15.376Z,2.10
2018-12-22T06:57:42.012Z,2.60
2018-12-22T07:00:17.473Z,1.03
2018-12-22T07:02:38.061Z,1.70
2018-12-22T07:05:04.820Z,3.50
2018-12-22T07:07:31.452Z,3.27
2018-12-22T07:09:58.076Z,2.40
2018-12-22T07:12:24.714Z,4.30
2018-12-22T07:14:51.334Z,7.10
2018-12-22T07:17:17.992Z,2.40
2018-12-22T07:19:44.628Z,1.40
2018-12-22T07:22:11.243Z,1.23
2018-12-22T07:24:38.012Z,6.10
2018-12-22T07:27:04.668Z,5.23
2018-12-22T07:29:31.295Z,2.97
2018-12-22T07:31:57.924Z,2.83
2018-12-22T07:34:24.573Z,3.07
2018-12-22T07:36:51.211Z,2.40
2018-12-22T07:39:17.822Z,3.13
2018-12-22T07:41:44.484Z,4.67
2018-12-22T07:44:11.088Z,1.97
2018-12-22T07:46:37.766Z,6.77
2018-12-22T07:49:04.412Z,5.50
2018-12-22T07:51:31.144Z,3.00
2018-12-22T07:53:57.781Z,6.07
2018-12-22T07:56:24.411Z,5.13
2018-12-22T07:58:51.048Z,3.53
2018-12-22T08:01:19.830Z,4.47
2018-12-22T08:03:46.392Z,2.17
2018-12-22T08:06:13.125Z,5.63
2018-12-22T08:08:39.764Z,4.50
2018-12-22T08:11:06.404Z,5.33
2018-12-22T08:13:33.048Z,5.93
2018-12-22T08:15:59.648Z,2.97
2018-12-22T08:18:26.320Z,4.93
2018-12-22T08:20:52.966Z,5.17
2018-12-22T08:23:19.601Z,5.60
2018-12-22T08:25:46.216Z,12.47
2018-12-22T08:28:12.836Z,3.33
2018-12-22T08:30:43.544Z,3.10
2018-12-22T08:33:08.097Z,4.23
2018-12-22T08:35:34.736Z,4.43
2018-12-22T08:38:01.894Z,5.53
2018-12-22T08:40:28.496Z,9.93
2018-12-22T08:42:55.170Z,5.53
2018-12-22T08:45:21.816Z,3.83
2018-12-22T08:47:48.437Z,5.53
2018-12-22T08:50:15.050Z,6.53
2018-12-22T08:52:41.676Z,7.63
2018-12-22T08:55:08.359Z,3.53
2018-12-22T08:57:34.999Z,4.00
2018-12-22T09:00:02.542Z,6.73
2018-12-22T09:02:30.463Z,4.90
2018-12-22T09:04:57.128Z,3.70
2018-12-22T09:07:23.788Z,4.90
2018-12-22T09:09:50.452Z,5.03
2018-12-22T09:12:17.068Z,3.80
2018-12-22T09:14:45.024Z,3.30
2018-12-22T09:17:11.809Z,4.23
2018-12-22T09:19:38.468Z,3.60
2018-12-22T09:22:05.105Z,3.53
2018-12-22T09:24:31.729Z,2.80
2018-12-22T09:26:58.364Z,2.13
2018-12-22T09:29:25.003Z,1.30
2018-12-22T09:31:51.617Z,2.70
2018-12-22T09:34:18.278Z,2.83
2018-12-22T09:36:45.015Z,2.50
2018-12-22T09:39:11.653Z,2.80
2018-12-22T09:41:38.289Z,1.63
2018-12-22T09:44:05.036Z,3.80
2018-12-22T09:46:31.637Z,1.80
2018-12-22T09:48:58.262Z,3.40
2018-12-22T09:51:24.948Z,0.97
2018-12-22T09:53:51.593Z,3.13
2018-12-22T09:56:18.223Z,1.90
2018-12-22T09:58:44.835Z,3.10
2018-12-22T10:01:11.469Z,1.30
2018-12-22T10:03:38.149Z,1.83
2018-12-22T10:06:04.757Z,1.53
2018-12-22T10:08:31.420Z,2.10
2018-12-22T10:10:58.060Z,2.80
2018-12-22T10:13:24.704Z,2.77
2018-12-22T10:15:51.336Z,3.00
2018-12-22T10:18:17.949Z,5.10
2018-12-22T10:20:44.621Z,1.50
2018-12-22T10:23:11.261Z,2.47
2018-12-22T10:25:37.902Z,1.30
2018-12-22T10:28:04.593Z,5.30
2018-12-22T10:30:31.207Z,4.27
2018-12-22T10:32:57.841Z,2.00
2018-12-22T10:35:25.614Z,1.60
2018-12-22T10:37:52.365Z,2.00
2018-12-22T10:40:19.264Z,2.40
2018-12-22T10:42:45.905Z,2.47
2018-12-22T10:45:12.647Z,3.90
2018-12-22T10:47:39.257Z,1.93
2018-12-22T10:50:06.249Z,6.73
2018-12-22T10:52:32.869Z,2.93
2018-12-22T10:54:59.516Z,2.40
2018-12-22T10:57:26.140Z,1.67
2018-12-22T10:59:52.783Z,7.03
2018-12-22T11:02:19.421Z,2.43
2018-12-22T11:04:46.029Z,5.40
2018-12-22T11:07:12.652Z,3.60
2018-12-22T11:09:39.264Z,4.07
2018-12-22T11:12:05.892Z,4.00
2018-12-22T11:14:32.524Z,7.87
2018-12-22T11:16:59.164Z,5.47
2018-12-22T11:19:26.207Z,6.40
2018-12-22T11:21:52.866Z,5.33
2018-12-22T11:24:19.736Z,7.00
2018-12-22T11:26:46.385Z,11.17
2018-12-22T11:29:13.040Z,9.93
2018-12-22T11:31:40.591Z,19.73
2018-12-22T11:34:07.379Z,8.37
2018-12-22T11:36:35.102Z,6.93
2018-12-22T11:39:02.790Z,8.73
2018-12-22T11:41:29.420Z,5.17
2018-12-22T11:43:57.539Z,8.90
2018-12-22T11:46:24.373Z,5.50
2018-12-22T11:48:51.481Z,12.50
2018-12-22T11:51:18.093Z,7.67
2018-12-22T11:53:44.734Z,12.00
2018-12-22T11:56:11.361Z,6.77
2018-12-22T11:58:38.394Z,4.33
2018-12-22T12:01:05.104Z,8.27
2018-12-22T12:03:31.737Z,7.00
2018-12-22T12:05:58.349Z,6.90
2018-12-22T12:08:24.978Z,7.73
2018-12-22T12:10:51.618Z,7.07
2018-12-22T12:13:18.229Z,8.47
2018-12-22T12:15:46.134Z,11.27
2018-12-22T12:21:05.457Z,4.47
2018-12-22T12:23:32.097Z,4.87
2018-12-22T12:25:58.708Z,4.43
2018-12-22T12:28:25.339Z,8.37
2018-12-22T12:30:51.946Z,7.83
2018-12-22T12:33:18.653Z,4.50
2018-12-22T12:35:45.305Z,6.07
2018-12-22T12:38:11.937Z,9.20
2018-12-22T12:40:38.564Z,10.93
2018-12-22T12:43:05.180Z,4.27
2018-12-22T12:45:31.820Z,5.10
2018-12-22T12:47:58.510Z,8.73
2018-12-22T12:50:25.236Z,8.90
2018-12-22T12:52:51.870Z,8.13
2018-12-22T12:55:18.493Z,5.87
2018-12-22T12:57:45.159Z,7.60
2018-12-22T13:00:13.536Z,5.93
2018-12-22T13:02:40.165Z,7.87
2018-12-22T13:05:07.553Z,8.57
2018-12-22T13:07:34.161Z,4.10
2018-12-22T13:10:00.805Z,4.13
2018-12-22T13:12:28.793Z,5.80
2018-12-22T13:14:55.457Z,7.53
2018-12-22T13:17:22.084Z,4.07
2018-12-22T13:19:48.825Z,8.10
2018-12-22T13:22:15.441Z,13.93
2018-12-22T13:24:42.169Z,6.20
2018-12-22T13:27:08.781Z,7.80
2018-12-22T13:29:35.456Z,5.57
2018-12-22T13:32:09.322Z,5.70
2018-12-22T13:34:30.873Z,6.70
2018-12-22T13:36:57.517Z,7.17
2018-12-22T13:39:24.152Z,9.43
2018-12-22T13:41:50.786Z,6.57
2018-12-22T13:44:17.401Z,9.10
2018-12-22T13:46:44.033Z,7.80
2018-12-22T13:49:10.983Z,8.30
2018-12-22T13:51:37.660Z,5.93
2018-12-22T13:54:04.393Z,7.63
2018-12-22T13:56:31.000Z,8.73
2018-12-22T13:58:57.632Z,9.50
2018-12-22T14:01:24.296Z,5.00
2018-12-22T14:03:50.944Z,8.73
2018-12-22T14:06:17.613Z,5.60
2018-12-22T14:08:44.228Z,4.37
2018-12-22T14:11:10.854Z,10.00
2018-12-22T14:13:37.461Z,7.30
2018-12-22T14:16:04.952Z,8.40
2018-12-22T14:18:35.392Z,6.27
2018-12-22T14:21:02.521Z,6.33
2018-12-22T14:26:21.740Z,7.63
2018-12-22T14:28:48.383Z,7.83
2018-12-22T14:31:14.988Z,6.93
2018-12-22T14:33:42.153Z,7.07
2018-12-22T14:36:08.845Z,11.03
2018-12-22T14:38:35.452Z,5.10
2018-12-22T14:41:02.320Z,9.07
2018-12-22T14:43:28.930Z,8.77
2018-12-22T14:45:55.567Z,6.13
2018-12-22T14:48:22.197Z,4.90
2018-12-22T14:50:48.817Z,10.33
2018-12-22T14:53:15.448Z,10.47
2018-12-22T14:55:42.105Z,6.70
2018-12-22T14:58:08.800Z,6.40
2018-12-22T15:00:35.417Z,9.67
2018-12-22T15:03:02.048Z,7.40
2018-12-22T15:05:28.691Z,12.53
2018-12-22T15:07:55.315Z,7.57
2018-12-22T15:10:21.924Z,8.43
2018-12-22T15:12:48.561Z,8.23
2018-12-22T15:15:15.166Z,8.33
2018-12-22T15:17:43.007Z,6.80
2018-12-22T15:20:13.313Z,6.60
2018-12-22T15:22:39.944Z,12.03
2018-12-22T15:25:07.312Z,16.17
2018-12-22T15:27:33.940Z,9.77
2018-12-22T15:30:00.621Z,7.50
2018-12-22T15:32:27.248Z,12.73
2018-12-22T15:34:53.965Z,8.77
2018-12-22T15:37:20.610Z,8.27
2018-12-22T15:39:47.221Z,7.17
2018-12-22T15:42:13.936Z,8.37
2018-12-22T15:44:40.697Z,11.80
2018-12-22T15:47:07.304Z,8.33
2018-12-22T15:49:33.924Z,7.67
2018-12-22T15:52:00.650Z,5.53
2018-12-22T15:54:27.264Z,10.10
2018-12-22T15:56:54.225Z,6.20
2018-12-22T15:59:20.876Z,7.87
2018-12-22T16:01:47.511Z,8.20
2018-12-22T16:04:14.109Z,7.60
2018-12-22T16:06:40.805Z,10.07
2018-12-22T16:09:07.441Z,8.87
2018-12-22T16:11:34.061Z,6.00
2018-12-22T16:14:00.698Z,6.60
2018-12-22T16:16:27.309Z,10.17
2018-12-22T16:18:53.985Z,14.93
2018-12-22T16:21:20.617Z,9.53
2018-12-22T16:23:47.237Z,11.97
2018-12-22T16:26:13.930Z,10.97
2018-12-22T16:28:40.539Z,10.00
2018-12-22T16:31:07.183Z,7.90
2018-12-22T16:33:33.815Z,8.60
2018-12-22T16:36:00.426Z,8.53
2018-12-22T16:38:27.063Z,10.40
2018-12-22T16:40:53.665Z,8.43
2018-12-22T16:43:20.313Z,10.00
2018-12-22T16:45:46.981Z,7.27
2018-12-22T16:48:13.589Z,9.17
2018-12-22T16:50:40.275Z,8.97
2018-12-22T16:53:06.930Z,6.87
2018-12-22T16:55:33.569Z,6.73
2018-12-22T16:58:02.044Z,8.53
2018-12-22T17:00:30.604Z,9.37
2018-12-22T17:02:57.268Z,5.60
2018-12-22T17:05:23.915Z,9.53
2018-12-22T17:07:50.554Z,9.47
2018-12-22T17:10:17.169Z,5.60
2018-12-22T17:12:43.866Z,8.10
2018-12-22T17:15:12.056Z,6.90
2018-12-22T17:17:38.664Z,6.97
2018-12-22T17:20:07.249Z,3.77
2018-12-22T17:22:34.513Z,9.30
2018-12-22T17:25:01.430Z,7.30
2018-12-22T17:27:28.048Z,8.03
2018-12-22T17:29:54.684Z,6.50
2018-12-22T17:32:21.340Z,10.43
2018-12-22T17:34:47.972Z,7.80
2018-12-22T17:37:14.728Z,7.43
2018-12-22T17:39:41.336Z,7.83
2018-12-22T17:42:07.997Z,9.73
2018-12-22T17:44:34.604Z,8.20
2018-12-22T17:47:01.377Z,15.77
2018-12-22T17:49:27.992Z,12.77
2018-12-22T17:51:54.661Z,8.07
2018-12-22T17:54:21.328Z,7.17
2018-12-22T17:56:47.960Z,6.00
2018-12-22T17:59:14.591Z,6.97
2018-12-22T18:01:41.196Z,9.43
2018-12-22T18:04:07.831Z,5.60
2018-12-22T18:06:34.497Z,5.33
2018-12-22T18:09:01.542Z,6.97
2018-12-22T18:11:28.186Z,9.77
2018-12-22T18:13:54.826Z,11.07
2018-12-22T18:16:21.561Z,7.43
2018-12-22T18:18:48.201Z,7.00
2018-12-22T18:21:14.809Z,6.83
2018-12-22T18:23:41.412Z,7.53
2018-12-22T18:26:08.040Z,9.80
2018-12-22T18:28:36.025Z,6.57
2018-12-22T18:31:02.894Z,9.03
2018-12-22T18:33:35.984Z,6.83
2018-12-22T18:35:58.178Z,8.23
2018-12-22T18:38:24.901Z,7.37
2018-12-22T18:40:51.528Z,7.10
2018-12-22T18:43:18.164Z,10.40
2018-12-22T18:45:44.809Z,11.83
2018-12-22T18:48:11.422Z,9.90
2018-12-22T18:50:38.057Z,10.53
2018-12-22T18:53:04.668Z,8.23
2018-12-22T18:55:31.296Z,7.20
2018-12-22T18:57:57.933Z,9.13
2018-12-22T19:00:24.648Z,11.40
2018-12-22T19:02:51.256Z,8.23
2018-12-22T19:05:18.367Z,10.63
2018-12-22T19:07:44.979Z,12.13
2018-12-22T19:10:28.485Z,10.70
2018-12-22T19:12:56.196Z,8.90
2018-12-22T19:15:23.146Z,7.10
2018-12-22T19:17:49.885Z,9.03
2018-12-22T19:20:18.342Z,7.57
2018-12-22T19:22:44.961Z,11.73
2018-12-22T19:25:11.601Z,15.57
2018-12-22T19:27:38.284Z,7.03
2018-12-22T19:30:06.053Z,12.00
2018-12-22T19:32:32.664Z,8.63
2018-12-22T19:34:59.297Z,12.60
2018-12-22T19:37:25.913Z,13.33
2018-12-22T19:39:52.565Z,10.40
2018-12-22T19:42:19.217Z,11.70
2018-12-22T19:44:45.824Z,13.40
2018-12-22T19:47:12.481Z,11.23
2018-12-22T19:49:39.089Z,9.73
2018-12-22T19:52:05.697Z,11.30
2018-12-22T19:54:32.337Z,13.03
2018-12-22T19:56:58.943Z,16.17
2018-12-22T19:59:25.584Z,11.03
2018-12-22T20:01:52.233Z,10.47
2018-12-22T20:04:18.845Z,9.10
2018-12-22T20:06:45.481Z,11.03
2018-12-22T20:09:12.092Z,7.27
2018-12-22T20:11:38.785Z,12.37
2018-12-22T20:14:05.417Z,9.87
2018-12-22T20:16:32.049Z,7.13
2018-12-22T20:18:58.696Z,11.53
2018-12-22T20:21:25.315Z,9.97
2018-12-22T20:23:51.928Z,11.37
2018-12-22T20:26:18.706Z,11.80
2018-12-22T20:28:45.364Z,10.77
2018-12-22T20:31:11.993Z,15.97
2018-12-22T20:33:38.611Z,9.80
2018-12-22T20:36:05.245Z,7.50
2018-12-22T20:38:31.865Z,12.70
2018-12-22T20:40:58.478Z,11.83
2018-12-22T20:43:25.128Z,10.60
2018-12-22T20:45:51.731Z,6.60
2018-12-22T20:48:18.368Z,14.00
2018-12-22T20:50:44.986Z,14.87
2018-12-22T20:53:11.618Z,9.13
2018-12-22T20:55:38.231Z,10.33
2018-12-22T20:58:04.857Z,8.50
2018-12-22T21:00:31.489Z,7.37
2018-12-22T21:02:58.110Z,8.53
2018-12-22T21:05:26.377Z,10.83
2018-12-22T21:07:53.014Z,10.90
2018-12-22T21:10:19.624Z,13.00
2018-12-22T21:12:46.356Z,12.13
2018-12-22T21:15:12.976Z,17.30
2018-12-22T21:17:39.613Z,10.23
2018-12-22T21:20:06.412Z,9.80
2018-12-22T21:22:33.049Z,11.83
2018-12-22T21:24:59.743Z,9.00
2018-12-22T21:27:26.399Z,9.70
2018-12-22T21:29:53.009Z,7.00
2018-12-22T21:32:19.641Z,9.97
2018-12-22T21:34:46.248Z,7.93
2018-12-22T21:37:12.904Z,10.67
2018-12-22T21:39:39.564Z,13.10
2018-12-22T21:42:06.181Z,10.60
2018-12-22T21:44:32.817Z,9.77
2018-12-22T21:46:59.423Z,12.63
2018-12-22T21:49:26.061Z,14.13
2018-12-22T21:51:52.683Z,11.60
2018-12-22T21:54:19.323Z,8.43
2018-12-22T21:56:45.922Z,10.50
2018-12-22T21:59:12.548Z,9.10
2018-12-22T22:01:39.157Z,7.10
2018-12-22T22:04:05.797Z,11.70
2018-12-22T22:06:32.404Z,6.70
2018-12-22T22:08:59.016Z,11.93
2018-12-22T22:11:25.653Z,10.27
2018-12-22T22:13:52.475Z,9.43
2018-12-22T22:16:19.103Z,9.10
2018-12-22T22:18:45.745Z,8.80
2018-12-22T22:21:12.358Z,10.80
2018-12-22T22:23:39.024Z,7.47
2018-12-22T22:26:05.664Z,5.87
2018-12-22T22:28:32.304Z,11.80
2018-12-22T22:30:58.920Z,9.37
2018-12-22T22:33:25.523Z,10.60
2018-12-22T22:35:52.149Z,12.37
2018-12-22T22:38:18.853Z,7.60
2018-12-22T22:40:45.626Z,10.67
2018-12-22T22:43:12.341Z,9.43
2018-12-22T22:45:38.978Z,13.70
2018-12-22T22:48:05.584Z,9.47
2018-12-22T22:50:32.260Z,9.60
2018-12-22T22:52:58.870Z,8.93
2018-12-22T22:55:25.536Z,9.87
2018-12-22T22:57:52.273Z,11.53
2018-12-22T23:00:22.741Z,8.73
2018-12-22T23:02:49.449Z,8.97
2018-12-22T23:05:16.084Z,9.40
2018-12-22T23:07:42.724Z,11.80
2018-12-22T23:10:09.346Z,8.50
2018-12-22T23:12:36.004Z,10.43
2018-12-22T23:15:02.697Z,8.03
2018-12-22T23:17:29.313Z,11.90
2018-12-22T23:19:55.949Z,13.07
2018-12-22T23:22:22.572Z,11.50
2018-12-22T23:24:49.197Z,11.70
2018-12-22T23:27:15.840Z,14.73
2018-12-22T23:29:42.582Z,10.63
2018-12-22T23:32:09.217Z,7.97
2018-12-22T23:34:35.850Z,14.07
2018-12-22T23:37:02.475Z,11.23
2018-12-22T23:39:29.113Z,10.60
2018-12-22T23:41:55.720Z,12.43
2018-12-22T23:44:22.372Z,17.57
2018-12-22T23:46:48.980Z,15.50
2018-12-22T23:49:15.609Z,18.90
2018-12-22T23:51:42.304Z,15.10
2018-12-22T23:54:08.921Z,8.10
2018-12-22T23:56:35.560Z,9.47
2018-12-22T23:59:02.240Z,8.67
